sensor_id;sensor_type;location;lat;lon;timestamp;P1;durP1;ratioP1;P2;durP2;ratioP2
261;SDS011;114;48.260;10.988;2024-01-30T00:00:24;7.13;;;5.70;;
261;SDS011;114;48.260;10.988;2024-01-30T00:05:20;7.27;;;6.67;;
261;SDS011;114;48.260;10.988;2024-01-30T00:07:45;6.77;;;5.90;;
261;SDS011;114;48.260;10.988;2024-01-30T00:10:11;8.67;;;7.00;;
261;SDS011;114;48.260;10.988;2024-01-30T00:12:37;8.93;;;6.90;;
261;SDS011;114;48.260;10.988;2024-01-30T00:15:04;6.83;;;6.20;;
261;SDS011;114;48.260;10.988;2024-01-30T00:17:30;13.33;;;5.93;;
261;SDS011;114;48.260;10.988;2024-01-30T00:19:56;12.73;;;6.60;;
261;SDS011;114;48.260;10.988;2024-01-30T00:22:21;8.93;;;6.27;;
261;SDS011;114;48.260;10.988;2024-01-30T00:24:47;13.27;;;6.50;;
261;SDS011;114;48.260;10.988;2024-01-30T00:27:12;11.30;;;6.73;;
261;SDS011;114;48.260;10.988;2024-01-30T00:29:38;9.13;;;5.57;;
261;SDS011;114;48.260;10.988;2024-01-30T00:32:05;7.27;;;6.23;;
261;SDS011;114;48.260;10.988;2024-01-30T00:34:31;7.50;;;6.13;;
261;SDS011;114;48.260;10.988;2024-01-30T00:36:57;8.60;;;6.70;;
261;SDS011;114;48.260;10.988;2024-01-30T00:39:23;7.20;;;6.37;;
261;SDS011;114;48.260;10.988;2024-01-30T00:41:49;7.63;;;6.83;;
261;SDS011;114;48.260;10.988;2024-01-30T00:44:14;9.40;;;6.00;;
261;SDS011;114;48.260;10.988;2024-01-30T00:46:40;10.13;;;6.70;;
261;SDS011;114;48.260;10.988;2024-01-30T00:49:05;12.23;;;6.80;;
261;SDS011;114;48.260;10.988;2024-01-30T00:51:31;6.87;;;5.93;;
261;SDS011;114;48.260;10.988;2024-01-30T00:53:57;6.93;;;6.20;;
261;SDS011;114;48.260;10.988;2024-01-30T00:56:23;6.33;;;5.50;;
261;SDS011;114;48.260;10.988;2024-01-30T00:58:49;5.83;;;5.33;;
261;SDS011;114;48.260;10.988;2024-01-30T01:01:15;7.57;;;6.13;;
261;SDS011;114;48.260;10.988;2024-01-30T01:03:40;8.17;;;5.73;;
261;SDS011;114;48.260;10.988;2024-01-30T01:06:08;9.33;;;6.13;;
261;SDS011;114;48.260;10.988;2024-01-30T01:08:34;6.63;;;5.80;;
261;SDS011;114;48.260;10.988;2024-01-30T01:11:00;6.63;;;5.70;;
261;SDS011;114;48.260;10.988;2024-01-30T01:13:26;10.50;;;5.97;;
261;SDS011;114;48.260;10.988;2024-01-30T01:15:51;6.87;;;5.20;;
261;SDS011;114;48.260;10.988;2024-01-30T01:18:17;7.60;;;6.03;;
261;SDS011;114;48.260;10.988;2024-01-30T01:20:42;5.90;;;5.40;;
261;SDS011;114;48.260;10.988;2024-01-30T01:23:08;7.90;;;5.73;;
261;SDS011;114;48.260;10.988;2024-01-30T01:25:34;18.33;;;5.03;;
261;SDS011;114;48.260;10.988;2024-01-30T01:27:59;5.80;;;5.20;;
261;SDS011;114;48.260;10.988;2024-01-30T01:30:28;5.90;;;5.30;;
261;SDS011;114;48.260;10.988;2024-01-30T01:32:56;12.83;;;5.83;;
261;SDS011;114;48.260;10.988;2024-01-30T01:35:25;7.43;;;4.97;;
261;SDS011;114;48.260;10.988;2024-01-30T01:37:51;9.90;;;5.40;;
261;SDS011;114;48.260;10.988;2024-01-30T01:40:23;8.40;;;5.63;;
261;SDS011;114;48.260;10.988;2024-01-30T01:42:50;5.43;;;4.93;;
261;SDS011;114;48.260;10.988;2024-01-30T01:45:18;4.90;;;4.50;;
261;SDS011;114;48.260;10.988;2024-01-30T01:47:44;6.77;;;5.07;;
261;SDS011;114;48.260;10.988;2024-01-30T01:50:18;5.37;;;4.97;;
261;SDS011;114;48.260;10.988;2024-01-30T01:52:49;6.00;;;5.40;;
261;SDS011;114;48.260;10.988;2024-01-30T01:55:16;5.33;;;4.70;;
261;SDS011;114;48.260;10.988;2024-01-30T01:57:43;5.10;;;4.40;;
261;SDS011;114;48.260;10.988;2024-01-30T02:00:10;6.20;;;4.87;;
261;SDS011;114;48.260;10.988;2024-01-30T02:02:37;6.70;;;5.57;;
261;SDS011;114;48.260;10.988;2024-01-30T02:05:04;7.50;;;5.33;;
261;SDS011;114;48.260;10.988;2024-01-30T02:07:30;6.43;;;4.73;;
261;SDS011;114;48.260;10.988;2024-01-30T02:09:56;6.33;;;4.67;;
261;SDS011;114;48.260;10.988;2024-01-30T02:12:21;7.03;;;4.70;;
261;SDS011;114;48.260;10.988;2024-01-30T02:14:47;6.03;;;4.50;;
261;SDS011;114;48.260;10.988;2024-01-30T02:17:15;6.30;;;4.87;;
261;SDS011;114;48.260;10.988;2024-01-30T02:19:42;7.40;;;5.23;;
261;SDS011;114;48.260;10.988;2024-01-30T02:22:07;5.60;;;5.10;;
261;SDS011;114;48.260;10.988;2024-01-30T02:24:34;5.30;;;4.80;;
261;SDS011;114;48.260;10.988;2024-01-30T02:27:00;5.80;;;5.27;;
261;SDS011;114;48.260;10.988;2024-01-30T02:29:25;8.10;;;4.93;;
261;SDS011;114;48.260;10.988;2024-01-30T02:31:52;5.53;;;5.03;;
261;SDS011;114;48.260;10.988;2024-01-30T02:34:18;5.33;;;4.87;;
261;SDS011;114;48.260;10.988;2024-01-30T02:36:44;6.23;;;4.87;;
261;SDS011;114;48.260;10.988;2024-01-30T02:39:10;8.60;;;4.70;;
261;SDS011;114;48.260;10.988;2024-01-30T02:41:36;6.40;;;5.40;;
261;SDS011;114;48.260;10.988;2024-01-30T02:44:05;4.60;;;4.20;;
261;SDS011;114;48.260;10.988;2024-01-30T02:46:30;6.50;;;4.80;;
261;SDS011;114;48.260;10.988;2024-01-30T02:48:57;8.10;;;5.37;;
261;SDS011;114;48.260;10.988;2024-01-30T02:51:23;6.57;;;5.07;;
261;SDS011;114;48.260;10.988;2024-01-30T02:53:49;6.90;;;4.97;;
261;SDS011;114;48.260;10.988;2024-01-30T02:56:14;5.30;;;4.80;;
261;SDS011;114;48.260;10.988;2024-01-30T02:58:40;7.97;;;4.80;;
261;SDS011;114;48.260;10.988;2024-01-30T03:01:06;8.60;;;5.60;;
261;SDS011;114;48.260;10.988;2024-01-30T03:03:32;5.97;;;5.37;;
261;SDS011;114;48.260;10.988;2024-01-30T03:06:00;6.97;;;5.10;;
261;SDS011;114;48.260;10.988;2024-01-30T03:08:27;5.63;;;4.80;;
261;SDS011;114;48.260;10.988;2024-01-30T03:10:53;5.80;;;5.27;;
261;SDS011;114;48.260;10.988;2024-01-30T03:13:18;6.50;;;5.27;;
261;SDS011;114;48.260;10.988;2024-01-30T03:15:44;7.83;;;5.13;;
261;SDS011;114;48.260;10.988;2024-01-30T03:18:10;8.00;;;5.70;;
261;SDS011;114;48.260;10.988;2024-01-30T03:20:35;6.60;;;5.87;;
261;SDS011;114;48.260;10.988;2024-01-30T03:23:01;9.67;;;4.97;;
261;SDS011;114;48.260;10.988;2024-01-30T03:25:27;9.00;;;5.27;;
261;SDS011;114;48.260;10.988;2024-01-30T03:27:53;7.60;;;4.67;;
261;SDS011;114;48.260;10.988;2024-01-30T03:30:19;5.87;;;5.27;;
261;SDS011;114;48.260;10.988;2024-01-30T03:32:44;8.20;;;4.67;;
261;SDS011;114;48.260;10.988;2024-01-30T03:35:10;11.13;;;4.93;;
261;SDS011;114;48.260;10.988;2024-01-30T03:37:36;4.97;;;4.57;;
261;SDS011;114;48.260;10.988;2024-01-30T03:40:02;6.90;;;4.27;;
261;SDS011;114;48.260;10.988;2024-01-30T03:42:28;6.50;;;4.60;;
261;SDS011;114;48.260;10.988;2024-01-30T03:44:54;6.20;;;4.80;;
261;SDS011;114;48.260;10.988;2024-01-30T03:47:20;5.20;;;4.70;;
261;SDS011;114;48.260;10.988;2024-01-30T03:49:46;5.13;;;4.60;;
261;SDS011;114;48.260;10.988;2024-01-30T03:52:12;5.43;;;4.73;;
261;SDS011;114;48.260;10.988;2024-01-30T03:54:38;4.77;;;4.37;;
261;SDS011;114;48.260;10.988;2024-01-30T03:57:03;4.50;;;4.10;;
261;SDS011;114;48.260;10.988;2024-01-30T03:59:30;9.23;;;4.40;;
261;SDS011;114;48.260;10.988;2024-01-30T04:01:56;7.50;;;4.30;;
261;SDS011;114;48.260;10.988;2024-01-30T04:04:22;6.83;;;5.03;;
261;SDS011;114;48.260;10.988;2024-01-30T04:06:48;5.40;;;4.90;;
261;SDS011;114;48.260;10.988;2024-01-30T04:09:14;7.60;;;5.07;;
261;SDS011;114;48.260;10.988;2024-01-30T04:11:40;4.70;;;4.30;;
261;SDS011;114;48.260;10.988;2024-01-30T04:14:07;5.90;;;4.90;;
261;SDS011;114;48.260;10.988;2024-01-30T04:16:33;5.97;;;4.83;;
261;SDS011;114;48.260;10.988;2024-01-30T04:18:59;5.17;;;4.53;;
261;SDS011;114;48.260;10.988;2024-01-30T04:21:25;5.23;;;4.60;;
261;SDS011;114;48.260;10.988;2024-01-30T04:23:51;4.83;;;4.50;;
261;SDS011;114;48.260;10.988;2024-01-30T04:26:17;5.80;;;4.60;;
261;SDS011;114;48.260;10.988;2024-01-30T04:28:43;4.80;;;4.40;;
261;SDS011;114;48.260;10.988;2024-01-30T04:31:09;6.00;;;4.13;;
261;SDS011;114;48.260;10.988;2024-01-30T04:33:35;6.57;;;4.33;;
261;SDS011;114;48.260;10.988;2024-01-30T04:36:01;3.97;;;3.53;;
261;SDS011;114;48.260;10.988;2024-01-30T04:38:28;4.30;;;3.90;;
261;SDS011;114;48.260;10.988;2024-01-30T04:40:53;5.40;;;4.13;;
261;SDS011;114;48.260;10.988;2024-01-30T04:43:19;4.13;;;3.83;;
261;SDS011;114;48.260;10.988;2024-01-30T04:45:46;4.20;;;3.90;;
261;SDS011;114;48.260;10.988;2024-01-30T04:48:12;8.43;;;3.80;;
261;SDS011;114;48.260;10.988;2024-01-30T04:50:37;5.10;;;3.90;;
261;SDS011;114;48.260;10.988;2024-01-30T04:53:09;3.90;;;3.53;;
261;SDS011;114;48.260;10.988;2024-01-30T04:55:36;4.53;;;4.13;;
261;SDS011;114;48.260;10.988;2024-01-30T04:58:02;6.23;;;4.57;;
261;SDS011;114;48.260;10.988;2024-01-30T05:00:29;5.00;;;4.50;;
261;SDS011;114;48.260;10.988;2024-01-30T05:02:55;3.83;;;3.53;;
261;SDS011;114;48.260;10.988;2024-01-30T05:05:30;4.63;;;3.13;;
261;SDS011;114;48.260;10.988;2024-01-30T05:07:59;6.60;;;4.60;;
261;SDS011;114;48.260;10.988;2024-01-30T05:10:24;5.43;;;4.27;;
261;SDS011;114;48.260;10.988;2024-01-30T05:12:50;5.00;;;4.27;;
261;SDS011;114;48.260;10.988;2024-01-30T05:15:16;4.47;;;4.00;;
261;SDS011;114;48.260;10.988;2024-01-30T05:17:42;5.60;;;4.07;;
261;SDS011;114;48.260;10.988;2024-01-30T05:20:07;6.00;;;4.20;;
261;SDS011;114;48.260;10.988;2024-01-30T05:22:36;4.80;;;4.40;;
261;SDS011;114;48.260;10.988;2024-01-30T05:25:02;6.60;;;4.00;;
261;SDS011;114;48.260;10.988;2024-01-30T05:27:31;5.20;;;4.70;;
261;SDS011;114;48.260;10.988;2024-01-30T05:29:56;8.07;;;4.53;;
261;SDS011;114;48.260;10.988;2024-01-30T05:32:22;5.43;;;3.50;;
261;SDS011;114;48.260;10.988;2024-01-30T05:34:48;4.60;;;3.67;;
261;SDS011;114;48.260;10.988;2024-01-30T05:37:17;6.17;;;3.70;;
261;SDS011;114;48.260;10.988;2024-01-30T05:39:43;4.53;;;4.10;;
261;SDS011;114;48.260;10.988;2024-01-30T05:42:08;4.60;;;4.20;;
261;SDS011;114;48.260;10.988;2024-01-30T05:44:35;4.53;;;4.00;;
261;SDS011;114;48.260;10.988;2024-01-30T05:47:00;5.40;;;4.50;;
261;SDS011;114;48.260;10.988;2024-01-30T05:49:26;8.53;;;5.50;;
261;SDS011;114;48.260;10.988;2024-01-30T05:51:51;9.23;;;6.30;;
261;SDS011;114;48.260;10.988;2024-01-30T05:54:17;8.17;;;6.07;;
261;SDS011;114;48.260;10.988;2024-01-30T05:56:43;8.30;;;5.67;;
261;SDS011;114;48.260;10.988;2024-01-30T05:59:08;4.90;;;4.17;;
261;SDS011;114;48.260;10.988;2024-01-30T06:01:34;3.50;;;3.20;;
261;SDS011;114;48.260;10.988;2024-01-30T06:04:00;4.80;;;4.33;;
261;SDS011;114;48.260;10.988;2024-01-30T06:06:26;4.67;;;4.03;;
261;SDS011;114;48.260;10.988;2024-01-30T06:08:52;5.03;;;4.60;;
261;SDS011;114;48.260;10.988;2024-01-30T06:11:20;6.60;;;4.47;;
261;SDS011;114;48.260;10.988;2024-01-30T06:13:46;5.20;;;4.63;;
261;SDS011;114;48.260;10.988;2024-01-30T06:16:12;3.97;;;3.60;;
261;SDS011;114;48.260;10.988;2024-01-30T06:18:37;5.40;;;3.90;;
261;SDS011;114;48.260;10.988;2024-01-30T06:21:04;12.30;;;3.87;;
261;SDS011;114;48.260;10.988;2024-01-30T06:23:30;3.83;;;3.43;;
261;SDS011;114;48.260;10.988;2024-01-30T06:25:56;3.67;;;3.40;;
261;SDS011;114;48.260;10.988;2024-01-30T06:28:24;5.07;;;3.87;;
261;SDS011;114;48.260;10.988;2024-01-30T06:30:50;4.27;;;3.70;;
261;SDS011;114;48.260;10.988;2024-01-30T06:33:28;3.93;;;3.63;;
261;SDS011;114;48.260;10.988;2024-01-30T06:35:56;4.30;;;3.90;;
261;SDS011;114;48.260;10.988;2024-01-30T06:38:23;5.83;;;4.33;;
261;SDS011;114;48.260;10.988;2024-01-30T06:40:49;5.43;;;4.30;;
261;SDS011;114;48.260;10.988;2024-01-30T06:43:14;3.30;;;3.00;;
261;SDS011;114;48.260;10.988;2024-01-30T06:45:40;4.20;;;3.37;;
261;SDS011;114;48.260;10.988;2024-01-30T06:48:07;6.17;;;4.60;;
261;SDS011;114;48.260;10.988;2024-01-30T06:50:33;4.63;;;4.20;;
261;SDS011;114;48.260;10.988;2024-01-30T06:52:59;5.57;;;4.53;;
261;SDS011;114;48.260;10.988;2024-01-30T06:55:25;5.13;;;3.60;;
261;SDS011;114;48.260;10.988;2024-01-30T06:57:51;4.57;;;3.50;;
261;SDS011;114;48.260;10.988;2024-01-30T07:00:17;5.73;;;3.90;;
261;SDS011;114;48.260;10.988;2024-01-30T07:02:46;9.33;;;4.17;;
261;SDS011;114;48.260;10.988;2024-01-30T07:05:13;4.80;;;4.30;;
261;SDS011;114;48.260;10.988;2024-01-30T07:07:41;4.60;;;3.67;;
261;SDS011;114;48.260;10.988;2024-01-30T07:10:08;4.27;;;3.87;;
261;SDS011;114;48.260;10.988;2024-01-30T07:12:34;4.20;;;3.80;;
261;SDS011;114;48.260;10.988;2024-01-30T07:14:59;3.73;;;3.30;;
261;SDS011;114;48.260;10.988;2024-01-30T07:17:28;5.00;;;3.73;;
261;SDS011;114;48.260;10.988;2024-01-30T07:19:53;6.83;;;4.77;;
261;SDS011;114;48.260;10.988;2024-01-30T07:22:19;6.97;;;4.73;;
261;SDS011;114;48.260;10.988;2024-01-30T07:24:45;8.03;;;5.00;;
261;SDS011;114;48.260;10.988;2024-01-30T07:27:14;5.23;;;3.70;;
261;SDS011;114;48.260;10.988;2024-01-30T07:29:41;3.80;;;3.50;;
261;SDS011;114;48.260;10.988;2024-01-30T07:32:06;4.40;;;3.97;;
261;SDS011;114;48.260;10.988;2024-01-30T07:34:32;15.33;;;10.37;;
261;SDS011;114;48.260;10.988;2024-01-30T07:36:58;11.70;;;7.20;;
261;SDS011;114;48.260;10.988;2024-01-30T07:39:24;7.13;;;5.90;;
261;SDS011;114;48.260;10.988;2024-01-30T07:41:50;5.90;;;4.03;;
261;SDS011;114;48.260;10.988;2024-01-30T07:44:17;5.30;;;4.80;;
261;SDS011;114;48.260;10.988;2024-01-30T07:46:43;4.40;;;4.00;;
261;SDS011;114;48.260;10.988;2024-01-30T07:49:10;7.20;;;4.67;;
261;SDS011;114;48.260;10.988;2024-01-30T07:51:36;12.30;;;3.60;;
261;SDS011;114;48.260;10.988;2024-01-30T07:54:02;3.70;;;3.40;;
261;SDS011;114;48.260;10.988;2024-01-30T07:56:27;9.50;;;3.73;;
261;SDS011;114;48.260;10.988;2024-01-30T07:58:54;3.50;;;3.07;;
261;SDS011;114;48.260;10.988;2024-01-30T08:01:23;3.97;;;3.67;;
261;SDS011;114;48.260;10.988;2024-01-30T08:03:48;3.40;;;3.10;;
261;SDS011;114;48.260;10.988;2024-01-30T08:06:15;3.87;;;2.70;;
261;SDS011;114;48.260;10.988;2024-01-30T08:08:42;3.63;;;3.33;;
261;SDS011;114;48.260;10.988;2024-01-30T08:11:08;3.70;;;3.40;;
261;SDS011;114;48.260;10.988;2024-01-30T08:13:35;3.20;;;2.90;;
261;SDS011;114;48.260;10.988;2024-01-30T08:16:02;6.47;;;3.70;;
261;SDS011;114;48.260;10.988;2024-01-30T08:18:27;3.77;;;3.43;;
261;SDS011;114;48.260;10.988;2024-01-30T08:20:53;5.07;;;3.77;;
261;SDS011;114;48.260;10.988;2024-01-30T08:23:19;7.80;;;5.90;;
261;SDS011;114;48.260;10.988;2024-01-30T08:25:44;4.53;;;4.13;;
261;SDS011;114;48.260;10.988;2024-01-30T08:28:10;6.53;;;4.27;;
261;SDS011;114;48.260;10.988;2024-01-30T08:30:36;6.70;;;4.30;;
261;SDS011;114;48.260;10.988;2024-01-30T08:33:04;5.30;;;4.70;;
261;SDS011;114;48.260;10.988;2024-01-30T08:35:30;5.30;;;3.90;;
261;SDS011;114;48.260;10.988;2024-01-30T08:37:58;5.67;;;3.67;;
261;SDS011;114;48.260;10.988;2024-01-30T08:40:24;12.10;;;4.07;;
261;SDS011;114;48.260;10.988;2024-01-30T08:42:50;4.00;;;3.70;;
261;SDS011;114;48.260;10.988;2024-01-30T08:45:16;9.40;;;4.07;;
261;SDS011;114;48.260;10.988;2024-01-30T08:47:41;4.30;;;3.90;;
261;SDS011;114;48.260;10.988;2024-01-30T08:50:08;5.63;;;4.27;;
261;SDS011;114;48.260;10.988;2024-01-30T08:52:34;4.90;;;4.00;;
261;SDS011;114;48.260;10.988;2024-01-30T08:55:00;5.13;;;4.40;;
261;SDS011;114;48.260;10.988;2024-01-30T08:57:25;9.03;;;5.67;;
261;SDS011;114;48.260;10.988;2024-01-30T08:59:56;7.63;;;6.80;;
261;SDS011;114;48.260;10.988;2024-01-30T09:02:22;10.07;;;5.60;;
261;SDS011;114;48.260;10.988;2024-01-30T09:04:47;6.80;;;5.90;;
261;SDS011;114;48.260;10.988;2024-01-30T09:10:44;7.23;;;5.17;;
261;SDS011;114;48.260;10.988;2024-01-30T09:13:10;5.60;;;5.00;;
261;SDS011;114;48.260;10.988;2024-01-30T09:15:36;8.00;;;4.87;;
261;SDS011;114;48.260;10.988;2024-01-30T09:18:02;8.73;;;6.27;;
261;SDS011;114;48.260;10.988;2024-01-30T09:20:28;11.33;;;6.80;;
261;SDS011;114;48.260;10.988;2024-01-30T09:22:55;13.97;;;7.33;;
261;SDS011;114;48.260;10.988;2024-01-30T09:25:20;5.50;;;4.63;;
261;SDS011;114;48.260;10.988;2024-01-30T09:27:47;5.80;;;4.90;;
261;SDS011;114;48.260;10.988;2024-01-30T09:30:12;4.63;;;4.20;;
261;SDS011;114;48.260;10.988;2024-01-30T09:32:39;4.90;;;4.03;;
261;SDS011;114;48.260;10.988;2024-01-30T09:35:05;4.17;;;3.77;;
261;SDS011;114;48.260;10.988;2024-01-30T09:37:31;5.10;;;4.13;;
261;SDS011;114;48.260;10.988;2024-01-30T09:39:58;7.87;;;4.90;;
261;SDS011;114;48.260;10.988;2024-01-30T09:47:43;4.30;;;3.90;;
261;SDS011;114;48.260;10.988;2024-01-30T09:50:16;7.50;;;4.30;;
261;SDS011;114;48.260;10.988;2024-01-30T09:52:42;4.60;;;4.20;;
261;SDS011;114;48.260;10.988;2024-01-30T09:55:09;4.67;;;3.93;;
261;SDS011;114;48.260;10.988;2024-01-30T09:57:38;3.50;;;3.20;;
261;SDS011;114;48.260;10.988;2024-01-30T10:00:05;7.20;;;4.47;;
261;SDS011;114;48.260;10.988;2024-01-30T10:02:34;10.93;;;4.17;;
261;SDS011;114;48.260;10.988;2024-01-30T10:05:01;3.97;;;3.67;;
261;SDS011;114;48.260;10.988;2024-01-30T10:07:27;5.60;;;3.73;;
261;SDS011;114;48.260;10.988;2024-01-30T10:09:56;4.93;;;4.00;;
261;SDS011;114;48.260;10.988;2024-01-30T10:12:25;12.07;;;3.33;;
261;SDS011;114;48.260;10.988;2024-01-30T10:14:52;7.47;;;4.40;;
261;SDS011;114;48.260;10.988;2024-01-30T10:17:20;7.97;;;3.40;;
261;SDS011;114;48.260;10.988;2024-01-30T10:19:46;10.10;;;3.90;;
261;SDS011;114;48.260;10.988;2024-01-30T10:22:12;4.70;;;4.20;;
261;SDS011;114;48.260;10.988;2024-01-30T10:24:37;4.77;;;3.33;;
261;SDS011;114;48.260;10.988;2024-01-30T10:27:05;6.30;;;3.30;;
261;SDS011;114;48.260;10.988;2024-01-30T10:29:31;7.70;;;3.97;;
261;SDS011;114;48.260;10.988;2024-01-30T10:32:00;6.87;;;3.70;;
261;SDS011;114;48.260;10.988;2024-01-30T10:34:30;3.70;;;3.40;;
261;SDS011;114;48.260;10.988;2024-01-30T10:37:16;7.07;;;3.33;;
261;SDS011;114;48.260;10.988;2024-01-30T10:39:43;3.73;;;3.43;;
261;SDS011;114;48.260;10.988;2024-01-30T10:42:13;5.90;;;3.80;;
261;SDS011;114;48.260;10.988;2024-01-30T10:44:50;4.17;;;3.37;;
261;SDS011;114;48.260;10.988;2024-01-30T10:47:26;5.80;;;3.20;;
261;SDS011;114;48.260;10.988;2024-01-30T10:52:24;2.90;;;2.70;;
261;SDS011;114;48.260;10.988;2024-01-30T10:54:53;3.00;;;2.80;;
261;SDS011;114;48.260;10.988;2024-01-30T10:57:19;4.47;;;3.37;;
261;SDS011;114;48.260;10.988;2024-01-30T10:59:48;5.40;;;2.90;;
261;SDS011;114;48.260;10.988;2024-01-30T11:02:18;5.43;;;2.77;;
261;SDS011;114;48.260;10.988;2024-01-30T11:04:45;3.17;;;2.87;;
261;SDS011;114;48.260;10.988;2024-01-30T11:07:14;5.30;;;2.80;;
261;SDS011;114;48.260;10.988;2024-01-30T11:09:50;3.57;;;3.00;;
261;SDS011;114;48.260;10.988;2024-01-30T11:12:16;15.53;;;2.67;;
261;SDS011;114;48.260;10.988;2024-01-30T11:14:46;6.40;;;2.83;;
261;SDS011;114;48.260;10.988;2024-01-30T11:17:12;3.97;;;2.13;;
261;SDS011;114;48.260;10.988;2024-01-30T11:19:37;2.57;;;2.47;;
261;SDS011;114;48.260;10.988;2024-01-30T11:22:03;3.50;;;2.23;;
261;SDS011;114;48.260;10.988;2024-01-30T11:24:36;7.00;;;3.13;;
261;SDS011;114;48.260;10.988;2024-01-30T11:29:38;4.40;;;3.47;;
261;SDS011;114;48.260;10.988;2024-01-30T11:32:05;4.17;;;2.97;;
261;SDS011;114;48.260;10.988;2024-01-30T11:34:32;4.93;;;3.23;;
261;SDS011;114;48.260;10.988;2024-01-30T11:37:03;4.10;;;2.63;;
261;SDS011;114;48.260;10.988;2024-01-30T11:39:35;10.47;;;2.57;;
261;SDS011;114;48.260;10.988;2024-01-30T11:42:02;4.20;;;2.70;;
261;SDS011;114;48.260;10.988;2024-01-30T11:44:30;6.40;;;2.90;;
261;SDS011;114;48.260;10.988;2024-01-30T11:46:56;3.43;;;2.60;;
261;SDS011;114;48.260;10.988;2024-01-30T11:49:23;7.70;;;3.20;;
261;SDS011;114;48.260;10.988;2024-01-30T11:51:49;4.60;;;3.40;;
261;SDS011;114;48.260;10.988;2024-01-30T11:54:18;9.90;;;2.93;;
261;SDS011;114;48.260;10.988;2024-01-30T11:56:44;7.73;;;3.07;;
261;SDS011;114;48.260;10.988;2024-01-30T11:59:11;4.93;;;2.73;;
261;SDS011;114;48.260;10.988;2024-01-30T12:01:37;4.90;;;2.80;;
261;SDS011;114;48.260;10.988;2024-01-30T12:04:02;9.03;;;2.33;;
261;SDS011;114;48.260;10.988;2024-01-30T12:06:33;3.30;;;2.57;;
261;SDS011;114;48.260;10.988;2024-01-30T12:09:00;3.90;;;2.17;;
261;SDS011;114;48.260;10.988;2024-01-30T12:11:29;4.00;;;2.27;;
261;SDS011;114;48.260;10.988;2024-01-30T12:13:55;2.47;;;2.23;;
261;SDS011;114;48.260;10.988;2024-01-30T12:16:22;3.93;;;2.90;;
261;SDS011;114;48.260;10.988;2024-01-30T12:18:48;2.80;;;2.10;;
261;SDS011;114;48.260;10.988;2024-01-30T12:21:17;4.17;;;2.40;;
261;SDS011;114;48.260;10.988;2024-01-30T12:23:43;2.60;;;2.17;;
261;SDS011;114;48.260;10.988;2024-01-30T12:26:10;6.10;;;3.00;;
261;SDS011;114;48.260;10.988;2024-01-30T12:28:36;4.07;;;3.00;;
261;SDS011;114;48.260;10.988;2024-01-30T12:31:12;10.60;;;3.70;;
261;SDS011;114;48.260;10.988;2024-01-30T12:33:38;9.57;;;3.40;;
261;SDS011;114;48.260;10.988;2024-01-30T12:36:04;35.37;;;11.77;;
261;SDS011;114;48.260;10.988;2024-01-30T12:38:31;18.27;;;7.17;;
261;SDS011;114;48.260;10.988;2024-01-30T12:40:57;15.37;;;5.03;;
261;SDS011;114;48.260;10.988;2024-01-30T12:43:24;15.90;;;5.30;;
261;SDS011;114;48.260;10.988;2024-01-30T12:45:50;19.00;;;8.27;;
261;SDS011;114;48.260;10.988;2024-01-30T12:48:19;37.40;;;12.77;;
261;SDS011;114;48.260;10.988;2024-01-30T12:50:45;17.33;;;6.53;;
261;SDS011;114;48.260;10.988;2024-01-30T12:53:13;26.50;;;10.67;;
261;SDS011;114;48.260;10.988;2024-01-30T12:55:38;17.63;;;5.20;;
261;SDS011;114;48.260;10.988;2024-01-30T12:58:04;14.13;;;4.43;;
261;SDS011;114;48.260;10.988;2024-01-30T13:00:32;5.73;;;3.40;;
261;SDS011;114;48.260;10.988;2024-01-30T13:02:59;10.40;;;2.97;;
261;SDS011;114;48.260;10.988;2024-01-30T13:05:25;2.90;;;2.63;;
261;SDS011;114;48.260;10.988;2024-01-30T13:07:52;9.43;;;3.73;;
261;SDS011;114;48.260;10.988;2024-01-30T13:10:18;10.07;;;3.23;;
261;SDS011;114;48.260;10.988;2024-01-30T13:12:44;14.60;;;3.93;;
261;SDS011;114;48.260;10.988;2024-01-30T13:15:10;5.47;;;3.30;;
261;SDS011;114;48.260;10.988;2024-01-30T13:17:36;10.90;;;3.03;;
261;SDS011;114;48.260;10.988;2024-01-30T13:20:02;3.83;;;3.50;;
261;SDS011;114;48.260;10.988;2024-01-30T13:22:30;10.93;;;2.90;;
261;SDS011;114;48.260;10.988;2024-01-30T13:24:55;6.17;;;2.80;;
261;SDS011;114;48.260;10.988;2024-01-30T13:27:21;6.60;;;3.70;;
261;SDS011;114;48.260;10.988;2024-01-30T13:29:48;3.70;;;3.37;;
261;SDS011;114;48.260;10.988;2024-01-30T13:32:15;16.30;;;3.70;;
261;SDS011;114;48.260;10.988;2024-01-30T13:34:41;6.03;;;3.20;;
261;SDS011;114;48.260;10.988;2024-01-30T13:37:09;4.83;;;3.57;;
261;SDS011;114;48.260;10.988;2024-01-30T13:39:34;3.50;;;2.77;;
261;SDS011;114;48.260;10.988;2024-01-30T13:42:00;2.93;;;2.50;;
261;SDS011;114;48.260;10.988;2024-01-30T13:44:26;7.37;;;2.53;;
261;SDS011;114;48.260;10.988;2024-01-30T13:46:51;5.80;;;3.40;;
261;SDS011;114;48.260;10.988;2024-01-30T13:49:29;4.80;;;3.60;;
261;SDS011;114;48.260;10.988;2024-01-30T13:51:58;3.67;;;2.73;;
261;SDS011;114;48.260;10.988;2024-01-30T13:54:24;2.60;;;2.40;;
261;SDS011;114;48.260;10.988;2024-01-30T13:56:50;5.90;;;2.03;;
261;SDS011;114;48.260;10.988;2024-01-30T13:59:15;5.60;;;3.03;;
261;SDS011;114;48.260;10.988;2024-01-30T14:01:47;6.00;;;5.40;;
261;SDS011;114;48.260;10.988;2024-01-30T14:04:13;7.20;;;3.80;;
261;SDS011;114;48.260;10.988;2024-01-30T14:09:10;3.30;;;3.00;;
261;SDS011;114;48.260;10.988;2024-01-30T14:11:37;9.00;;;2.60;;
261;SDS011;114;48.260;10.988;2024-01-30T14:14:03;9.20;;;2.97;;
261;SDS011;114;48.260;10.988;2024-01-30T14:16:29;6.13;;;3.47;;
261;SDS011;114;48.260;10.988;2024-01-30T14:18:55;10.67;;;4.07;;
261;SDS011;114;48.260;10.988;2024-01-30T14:21:20;3.03;;;2.80;;
261;SDS011;114;48.260;10.988;2024-01-30T14:23:46;4.93;;;3.00;;
261;SDS011;114;48.260;10.988;2024-01-30T14:26:13;4.57;;;2.80;;
261;SDS011;114;48.260;10.988;2024-01-30T14:28:40;12.43;;;3.07;;
261;SDS011;114;48.260;10.988;2024-01-30T14:31:06;10.67;;;3.43;;
261;SDS011;114;48.260;10.988;2024-01-30T14:33:32;5.80;;;2.23;;
261;SDS011;114;48.260;10.988;2024-01-30T14:35:58;9.07;;;2.43;;
261;SDS011;114;48.260;10.988;2024-01-30T14:38:23;3.87;;;2.53;;
261;SDS011;114;48.260;10.988;2024-01-30T14:40:50;2.37;;;1.70;;
261;SDS011;114;48.260;10.988;2024-01-30T14:43:17;2.27;;;2.03;;
261;SDS011;114;48.260;10.988;2024-01-30T14:45:42;2.83;;;2.00;;
261;SDS011;114;48.260;10.988;2024-01-30T14:48:11;10.53;;;6.00;;
261;SDS011;114;48.260;10.988;2024-01-30T14:50:37;12.43;;;4.23;;
261;SDS011;114;48.260;10.988;2024-01-30T14:53:03;10.77;;;5.33;;
261;SDS011;114;48.260;10.988;2024-01-30T14:55:30;9.17;;;6.60;;
261;SDS011;114;48.260;10.988;2024-01-30T14:57:55;7.67;;;3.13;;
261;SDS011;114;48.260;10.988;2024-01-30T15:00:21;4.63;;;2.13;;
261;SDS011;114;48.260;10.988;2024-01-30T15:02:48;7.80;;;2.70;;
261;SDS011;114;48.260;10.988;2024-01-30T15:05:14;14.80;;;7.50;;
261;SDS011;114;48.260;10.988;2024-01-30T15:07:40;23.97;;;12.73;;
261;SDS011;114;48.260;10.988;2024-01-30T15:10:06;12.10;;;7.27;;
261;SDS011;114;48.260;10.988;2024-01-30T15:12:33;8.30;;;6.30;;
261;SDS011;114;48.260;10.988;2024-01-30T15:14:59;8.17;;;6.10;;
261;SDS011;114;48.260;10.988;2024-01-30T15:17:26;6.77;;;4.73;;
261;SDS011;114;48.260;10.988;2024-01-30T15:19:52;6.00;;;4.97;;
261;SDS011;114;48.260;10.988;2024-01-30T15:22:18;7.90;;;3.00;;
261;SDS011;114;48.260;10.988;2024-01-30T15:24:48;3.50;;;2.93;;
261;SDS011;114;48.260;10.988;2024-01-30T15:27:16;5.27;;;2.10;;
261;SDS011;114;48.260;10.988;2024-01-30T15:29:44;2.23;;;2.03;;
261;SDS011;114;48.260;10.988;2024-01-30T15:32:13;2.97;;;2.43;;
261;SDS011;114;48.260;10.988;2024-01-30T15:34:40;3.67;;;2.70;;
261;SDS011;114;48.260;10.988;2024-01-30T15:37:06;4.07;;;2.63;;
261;SDS011;114;48.260;10.988;2024-01-30T15:39:32;5.10;;;3.00;;
261;SDS011;114;48.260;10.988;2024-01-30T15:41:58;3.50;;;3.17;;